sensor_id;sensor_type;location;lat;lon;timestamp;P1;durP1;ratioP1;P2;durP2;ratioP2
43142;SDS011;28750;59.842;17.584;2022-08-03T00:00:19;2.10;;;0.93;;
43142;SDS011;28750;59.842;17.584;2022-08-03T00:02:48;1.58;;;0.80;;
43142;SDS011;28750;59.842;17.584;2022-08-03T00:05:15;2.78;;;0.90;;
43142;SDS011;28750;59.842;17.584;2022-08-03T00:07:42;3.28;;;1.15;;
43142;SDS011;28750;59.842;17.584;2022-08-03T00:10:08;2.25;;;1.00;;
43142;SDS011;28750;59.842;17.584;2022-08-03T00:12:35;2.70;;;1.00;;
43142;SDS011;28750;59.842;17.584;2022-08-03T00:15:02;3.50;;;1.00;;
43142;SDS011;28750;59.842;17.584;2022-08-03T00:17:30;2.60;;;1.23;;
43142;SDS011;28750;59.842;17.584;2022-08-03T00:19:57;2.60;;;0.80;;
43142;SDS011;28750;59.842;17.584;2022-08-03T00:22:24;2.85;;;1.10;;
43142;SDS011;28750;59.842;17.584;2022-08-03T00:24:51;3.05;;;0.90;;
43142;SDS011;28750;59.842;17.584;2022-08-03T00:27:17;1.25;;;0.75;;
43142;SDS011;28750;59.842;17.584;2022-08-03T00:29:44;1.55;;;1.00;;
43142;SDS011;28750;59.842;17.584;2022-08-03T00:32:12;2.22;;;0.90;;
43142;SDS011;28750;59.842;17.584;2022-08-03T00:34:39;3.35;;;1.02;;
43142;SDS011;28750;59.842;17.584;2022-08-03T00:37:06;1.52;;;0.90;;
43142;SDS011;28750;59.842;17.584;2022-08-03T00:39:33;2.00;;;1.10;;
43142;SDS011;28750;59.842;17.584;2022-08-03T00:42:03;1.20;;;0.82;;
43142;SDS011;28750;59.842;17.584;2022-08-03T00:44:30;2.78;;;1.00;;
43142;SDS011;28750;59.842;17.584;2022-08-03T00:46:57;2.03;;;0.90;;
43142;SDS011;28750;59.842;17.584;2022-08-03T00:49:24;2.15;;;0.93;;
43142;SDS011;28750;59.842;17.584;2022-08-03T00:51:51;1.98;;;0.90;;
43142;SDS011;28750;59.842;17.584;2022-08-03T00:54:18;2.45;;;0.73;;
43142;SDS011;28750;59.842;17.584;2022-08-03T00:56:45;1.75;;;1.08;;
43142;SDS011;28750;59.842;17.584;2022-08-03T00:59:13;2.22;;;1.10;;
43142;SDS011;28750;59.842;17.584;2022-08-03T01:01:41;2.95;;;1.08;;
43142;SDS011;28750;59.842;17.584;2022-08-03T01:04:08;1.55;;;0.93;;
43142;SDS011;28750;59.842;17.584;2022-08-03T01:06:40;3.22;;;1.10;;
43142;SDS011;28750;59.842;17.584;2022-08-03T01:12:00;2.42;;;1.13;;
43142;SDS011;28750;59.842;17.584;2022-08-03T01:20:20;1.63;;;0.95;;
43142;SDS011;28750;59.842;17.584;2022-08-03T01:28:55;0.68;;;0.65;;
43142;SDS011;28750;59.842;17.584;2022-08-03T01:32:02;3.03;;;1.30;;
43142;SDS011;28750;59.842;17.584;2022-08-03T01:34:39;3.15;;;1.17;;
43142;SDS011;28750;59.842;17.584;2022-08-03T01:37:10;2.42;;;1.23;;
43142;SDS011;28750;59.842;17.584;2022-08-03T01:39:38;3.60;;;1.40;;
43142;SDS011;28750;59.842;17.584;2022-08-03T01:42:07;1.77;;;0.98;;
43142;SDS011;28750;59.842;17.584;2022-08-03T01:44:39;2.08;;;1.10;;
43142;SDS011;28750;59.842;17.584;2022-08-03T01:47:09;1.48;;;0.90;;
43142;SDS011;28750;59.842;17.584;2022-08-03T01:49:38;2.03;;;1.17;;
43142;SDS011;28750;59.842;17.584;2022-08-03T01:52:09;2.30;;;1.10;;
43142;SDS011;28750;59.842;17.584;2022-08-03T01:54:41;2.17;;;0.85;;
43142;SDS011;28750;59.842;17.584;2022-08-03T01:57:10;4.00;;;1.20;;
43142;SDS011;28750;59.842;17.584;2022-08-03T01:59:38;2.45;;;0.90;;
43142;SDS011;28750;59.842;17.584;2022-08-03T02:02:07;4.40;;;1.10;;
43142;SDS011;28750;59.842;17.584;2022-08-03T02:04:37;3.13;;;1.03;;
43142;SDS011;28750;59.842;17.584;2022-08-03T02:07:05;3.08;;;1.02;;
43142;SDS011;28750;59.842;17.584;2022-08-03T02:09:36;2.63;;;1.20;;
43142;SDS011;28750;59.842;17.584;2022-08-03T02:12:08;5.30;;;1.30;;
43142;SDS011;28750;59.842;17.584;2022-08-03T02:14:37;2.95;;;0.93;;
43142;SDS011;28750;59.842;17.584;2022-08-03T02:17:06;4.32;;;1.48;;
43142;SDS011;28750;59.842;17.584;2022-08-03T02:19:34;1.83;;;0.90;;
43142;SDS011;28750;59.842;17.584;2022-08-03T02:22:03;1.95;;;1.02;;
43142;SDS011;28750;59.842;17.584;2022-08-03T02:24:31;2.17;;;1.00;;
43142;SDS011;28750;59.842;17.584;2022-08-03T02:26:58;1.77;;;1.30;;
43142;SDS011;28750;59.842;17.584;2022-08-03T02:29:27;3.22;;;1.17;;
43142;SDS011;28750;59.842;17.584;2022-08-03T02:31:58;2.75;;;1.17;;
43142;SDS011;28750;59.842;17.584;2022-08-03T02:34:28;2.40;;;1.30;;
43142;SDS011;28750;59.842;17.584;2022-08-03T02:36:58;3.63;;;1.17;;
43142;SDS011;28750;59.842;17.584;2022-08-03T02:39:28;5.20;;;1.27;;
43142;SDS011;28750;59.842;17.584;2022-08-03T02:41:58;2.33;;;1.40;;
43142;SDS011;28750;59.842;17.584;2022-08-03T02:44:28;1.63;;;1.02;;
43142;SDS011;28750;59.842;17.584;2022-08-03T02:46:59;4.65;;;1.60;;
43142;SDS011;28750;59.842;17.584;2022-08-03T02:49:30;5.03;;;1.23;;
43142;SDS011;28750;59.842;17.584;2022-08-03T02:51:58;3.13;;;1.30;;
43142;SDS011;28750;59.842;17.584;2022-08-03T02:54:28;3.88;;;1.10;;
43142;SDS011;28750;59.842;17.584;2022-08-03T02:56:58;2.17;;;1.27;;
43142;SDS011;28750;59.842;17.584;2022-08-03T02:59:27;2.15;;;1.30;;
43142;SDS011;28750;59.842;17.584;2022-08-03T03:01:56;4.53;;;1.50;;
43142;SDS011;28750;59.842;17.584;2022-08-03T03:04:26;1.30;;;1.10;;
43142;SDS011;28750;59.842;17.584;2022-08-03T03:06:55;4.03;;;1.77;;
43142;SDS011;28750;59.842;17.584;2022-08-03T03:09:23;5.05;;;1.30;;
43142;SDS011;28750;59.842;17.584;2022-08-03T03:11:50;2.97;;;1.30;;
43142;SDS011;28750;59.842;17.584;2022-08-03T03:14:19;1.95;;;1.20;;
43142;SDS011;28750;59.842;17.584;2022-08-03T03:16:46;3.55;;;1.40;;
43142;SDS011;28750;59.842;17.584;2022-08-03T03:19:14;2.75;;;1.38;;
43142;SDS011;28750;59.842;17.584;2022-08-03T03:21:43;3.08;;;1.60;;
43142;SDS011;28750;59.842;17.584;2022-08-03T03:24:11;2.03;;;1.25;;
43142;SDS011;28750;59.842;17.584;2022-08-03T03:26:39;3.25;;;1.30;;
43142;SDS011;28750;59.842;17.584;2022-08-03T03:29:06;4.07;;;1.50;;
43142;SDS011;28750;59.842;17.584;2022-08-03T03:31:34;2.30;;;1.40;;
43142;SDS011;28750;59.842;17.584;2022-08-03T03:34:01;5.30;;;1.70;;
43142;SDS011;28750;59.842;17.584;2022-08-03T03:36:29;3.45;;;1.20;;
43142;SDS011;28750;59.842;17.584;2022-08-03T03:38:56;5.07;;;1.48;;
43142;SDS011;28750;59.842;17.584;2022-08-03T03:41:23;1.48;;;1.25;;
43142;SDS011;28750;59.842;17.584;2022-08-03T03:43:50;2.50;;;1.30;;
43142;SDS011;28750;59.842;17.584;2022-08-03T03:46:17;2.50;;;1.20;;
43142;SDS011;28750;59.842;17.584;2022-08-03T03:48:44;2.33;;;1.30;;
43142;SDS011;28750;59.842;17.584;2022-08-03T03:51:11;1.50;;;1.17;;
43142;SDS011;28750;59.842;17.584;2022-08-03T03:53:38;4.45;;;1.33;;
43142;SDS011;28750;59.842;17.584;2022-08-03T03:56:06;2.58;;;1.50;;
43142;SDS011;28750;59.842;17.584;2022-08-03T03:58:33;2.50;;;1.20;;
43142;SDS011;28750;59.842;17.584;2022-08-03T04:01:00;2.08;;;1.15;;
43142;SDS011;28750;59.842;17.584;2022-08-03T04:03:27;2.47;;;1.40;;
43142;SDS011;28750;59.842;17.584;2022-08-03T04:05:54;6.47;;;1.30;;
43142;SDS011;28750;59.842;17.584;2022-08-03T04:08:38;4.88;;;1.30;;
43142;SDS011;28750;59.842;17.584;2022-08-03T04:11:51;2.95;;;1.77;;
43142;SDS011;28750;59.842;17.584;2022-08-03T04:14:27;3.63;;;1.60;;
43142;SDS011;28750;59.842;17.584;2022-08-03T04:17:00;3.60;;;1.77;;
43142;SDS011;28750;59.842;17.584;2022-08-03T04:19:34;3.50;;;1.58;;
43142;SDS011;28750;59.842;17.584;2022-08-03T04:22:06;3.85;;;1.77;;
43142;SDS011;28750;59.842;17.584;2022-08-03T04:24:40;2.42;;;1.30;;
43142;SDS011;28750;59.842;17.584;2022-08-03T04:27:13;2.63;;;1.42;;
43142;SDS011;28750;59.842;17.584;2022-08-03T04:29:42;2.47;;;1.27;;
43142;SDS011;28750;59.842;17.584;2022-08-03T04:32:13;2.40;;;1.50;;
43142;SDS011;28750;59.842;17.584;2022-08-03T04:34:41;7.15;;;1.50;;
43142;SDS011;28750;59.842;17.584;2022-08-03T04:37:10;1.75;;;1.10;;
43142;SDS011;28750;59.842;17.584;2022-08-03T04:39:39;2.83;;;1.23;;
43142;SDS011;28750;59.842;17.584;2022-08-03T04:42:08;2.40;;;1.05;;
43142;SDS011;28750;59.842;17.584;2022-08-03T04:44:40;1.67;;;1.30;;
43142;SDS011;28750;59.842;17.584;2022-08-03T04:47:09;3.75;;;1.35;;
43142;SDS011;28750;59.842;17.584;2022-08-03T04:49:36;1.63;;;1.30;;
43142;SDS011;28750;59.842;17.584;2022-08-03T04:52:06;3.80;;;1.30;;
43142;SDS011;28750;59.842;17.584;2022-08-03T04:54:43;3.25;;;1.17;;
43142;SDS011;28750;59.842;17.584;2022-08-03T04:57:12;6.13;;;1.15;;
43142;SDS011;28750;59.842;17.584;2022-08-03T04:59:38;3.05;;;1.48;;
43142;SDS011;28750;59.842;17.584;2022-08-03T05:02:05;3.33;;;1.30;;
43142;SDS011;28750;59.842;17.584;2022-08-03T05:04:32;2.67;;;1.42;;
43142;SDS011;28750;59.842;17.584;2022-08-03T05:06:59;3.95;;;1.45;;
43142;SDS011;28750;59.842;17.584;2022-08-03T05:09:26;2.35;;;1.27;;
43142;SDS011;28750;59.842;17.584;2022-08-03T05:11:53;2.63;;;1.20;;
43142;SDS011;28750;59.842;17.584;2022-08-03T05:14:20;3.33;;;1.50;;
43142;SDS011;28750;59.842;17.584;2022-08-03T05:16:47;1.90;;;1.13;;
43142;SDS011;28750;59.842;17.584;2022-08-03T05:19:14;4.55;;;1.20;;
43142;SDS011;28750;59.842;17.584;2022-08-03T05:21:41;2.75;;;1.17;;
43142;SDS011;28750;59.842;17.584;2022-08-03T05:24:08;1.92;;;1.23;;
43142;SDS011;28750;59.842;17.584;2022-08-03T05:26:35;2.35;;;1.50;;
43142;SDS011;28750;59.842;17.584;2022-08-03T05:29:02;2.97;;;1.33;;
43142;SDS011;28750;59.842;17.584;2022-08-03T05:31:29;3.60;;;1.25;;
43142;SDS011;28750;59.842;17.584;2022-08-03T05:33:56;2.17;;;1.55;;
43142;SDS011;28750;59.842;17.584;2022-08-03T05:36:23;4.57;;;1.40;;
43142;SDS011;28750;59.842;17.584;2022-08-03T05:38:50;3.15;;;1.98;;
43142;SDS011;28750;59.842;17.584;2022-08-03T05:41:17;1.67;;;1.38;;
43142;SDS011;28750;59.842;17.584;2022-08-03T05:43:44;1.25;;;1.10;;
43142;SDS011;28750;59.842;17.584;2022-08-03T05:46:11;3.05;;;1.50;;
43142;SDS011;28750;59.842;17.584;2022-08-03T05:48:38;2.75;;;1.38;;
43142;SDS011;28750;59.842;17.584;2022-08-03T05:51:06;1.95;;;1.30;;
43142;SDS011;28750;59.842;17.584;2022-08-03T05:53:36;4.28;;;1.35;;
43142;SDS011;28750;59.842;17.584;2022-08-03T05:56:03;5.05;;;1.45;;
43142;SDS011;28750;59.842;17.584;2022-08-03T05:58:30;4.00;;;1.50;;
43142;SDS011;28750;59.842;17.584;2022-08-03T06:00:57;3.45;;;1.55;;
43142;SDS011;28750;59.842;17.584;2022-08-03T06:03:24;3.33;;;1.30;;
43142;SDS011;28750;59.842;17.584;2022-08-03T06:05:52;4.05;;;1.33;;
43142;SDS011;28750;59.842;17.584;2022-08-03T06:08:20;3.15;;;1.15;;
43142;SDS011;28750;59.842;17.584;2022-08-03T06:10:48;3.15;;;1.50;;
43142;SDS011;28750;59.842;17.584;2022-08-03T06:13:16;1.95;;;1.45;;
43142;SDS011;28750;59.842;17.584;2022-08-03T06:15:43;3.05;;;1.40;;
43142;SDS011;28750;59.842;17.584;2022-08-03T06:18:10;4.15;;;1.33;;
43142;SDS011;28750;59.842;17.584;2022-08-03T06:20:36;2.90;;;1.50;;
43142;SDS011;28750;59.842;17.584;2022-08-03T06:23:03;2.03;;;1.38;;
43142;SDS011;28750;59.842;17.584;2022-08-03T06:25:30;1.83;;;1.45;;
43142;SDS011;28750;59.842;17.584;2022-08-03T06:27:57;2.55;;;1.67;;
43142;SDS011;28750;59.842;17.584;2022-08-03T06:30:24;2.60;;;1.50;;
43142;SDS011;28750;59.842;17.584;2022-08-03T06:32:52;3.15;;;1.58;;
43142;SDS011;28750;59.842;17.584;2022-08-03T06:35:19;2.90;;;1.80;;
43142;SDS011;28750;59.842;17.584;2022-08-03T06:37:47;3.67;;;1.60;;
43142;SDS011;28750;59.842;17.584;2022-08-03T06:40:17;1.73;;;1.40;;
43142;SDS011;28750;59.842;17.584;2022-08-03T06:42:52;2.25;;;1.52;;
43142;SDS011;28750;59.842;17.584;2022-08-03T06:45:20;2.30;;;1.35;;
43142;SDS011;28750;59.842;17.584;2022-08-03T06:47:47;3.85;;;1.70;;
43142;SDS011;28750;59.842;17.584;2022-08-03T06:50:32;1.48;;;1.38;;
43142;SDS011;28750;59.842;17.584;2022-08-03T06:53:01;3.35;;;1.63;;
43142;SDS011;28750;59.842;17.584;2022-08-03T06:55:29;2.78;;;1.80;;
43142;SDS011;28750;59.842;17.584;2022-08-03T06:57:57;2.03;;;1.55;;
43142;SDS011;28750;59.842;17.584;2022-08-03T07:00:24;2.97;;;1.40;;
43142;SDS011;28750;59.842;17.584;2022-08-03T07:02:52;3.70;;;2.03;;
43142;SDS011;28750;59.842;17.584;2022-08-03T07:05:19;4.03;;;1.55;;
43142;SDS011;28750;59.842;17.584;2022-08-03T07:07:47;2.88;;;1.85;;
43142;SDS011;28750;59.842;17.584;2022-08-03T07:10:14;1.88;;;1.50;;
43142;SDS011;28750;59.842;17.584;2022-08-03T07:12:41;1.75;;;1.55;;
43142;SDS011;28750;59.842;17.584;2022-08-03T07:15:08;3.72;;;1.40;;
43142;SDS011;28750;59.842;17.584;2022-08-03T07:17:35;1.88;;;1.70;;
43142;SDS011;28750;59.842;17.584;2022-08-03T07:20:03;1.83;;;1.70;;
43142;SDS011;28750;59.842;17.584;2022-08-03T07:22:32;3.97;;;1.52;;
43142;SDS011;28750;59.842;17.584;2022-08-03T07:25:00;2.80;;;1.95;;
43142;SDS011;28750;59.842;17.584;2022-08-03T07:27:28;3.38;;;1.80;;
43142;SDS011;28750;59.842;17.584;2022-08-03T07:29:55;3.30;;;1.88;;
43142;SDS011;28750;59.842;17.584;2022-08-03T07:32:23;2.17;;;1.77;;
43142;SDS011;28750;59.842;17.584;2022-08-03T07:34:51;2.08;;;1.60;;
43142;SDS011;28750;59.842;17.584;2022-08-03T07:37:18;6.97;;;2.00;;
43142;SDS011;28750;59.842;17.584;2022-08-03T07:39:45;2.03;;;1.52;;
43142;SDS011;28750;59.842;17.584;2022-08-03T07:42:12;3.25;;;1.55;;
43142;SDS011;28750;59.842;17.584;2022-08-03T07:44:39;3.92;;;1.70;;
43142;SDS011;28750;59.842;17.584;2022-08-03T07:47:06;2.13;;;1.40;;
43142;SDS011;28750;59.842;17.584;2022-08-03T07:49:37;4.07;;;1.95;;
43142;SDS011;28750;59.842;17.584;2022-08-03T07:52:05;1.80;;;1.52;;
43142;SDS011;28750;59.842;17.584;2022-08-03T07:54:50;3.85;;;1.40;;
43142;SDS011;28750;59.842;17.584;2022-08-03T07:57:17;3.90;;;1.65;;
43142;SDS011;28750;59.842;17.584;2022-08-03T07:59:44;1.65;;;1.55;;
43142;SDS011;28750;59.842;17.584;2022-08-03T08:02:12;2.00;;;1.80;;
43142;SDS011;28750;59.842;17.584;2022-08-03T08:04:39;2.22;;;1.40;;
43142;SDS011;28750;59.842;17.584;2022-08-03T08:07:06;1.83;;;1.30;;
43142;SDS011;28750;59.842;17.584;2022-08-03T08:09:34;3.60;;;1.40;;
43142;SDS011;28750;59.842;17.584;2022-08-03T08:12:02;2.28;;;1.60;;
43142;SDS011;28750;59.842;17.584;2022-08-03T08:14:29;3.40;;;1.65;;
43142;SDS011;28750;59.842;17.584;2022-08-03T08:16:56;1.73;;;1.63;;
43142;SDS011;28750;59.842;17.584;2022-08-03T08:19:23;1.90;;;1.27;;
43142;SDS011;28750;59.842;17.584;2022-08-03T08:21:50;3.45;;;1.55;;
43142;SDS011;28750;59.842;17.584;2022-08-03T08:24:17;1.23;;;1.10;;
43142;SDS011;28750;59.842;17.584;2022-08-03T08:26:44;3.80;;;1.90;;
43142;SDS011;28750;59.842;17.584;2022-08-03T08:29:11;1.95;;;1.50;;
43142;SDS011;28750;59.842;17.584;2022-08-03T08:31:38;4.88;;;1.75;;
43142;SDS011;28750;59.842;17.584;2022-08-03T08:34:05;1.73;;;1.30;;
43142;SDS011;28750;59.842;17.584;2022-08-03T08:36:32;2.17;;;1.42;;
43142;SDS011;28750;59.842;17.584;2022-08-03T08:39:00;2.97;;;1.25;;
43142;SDS011;28750;59.842;17.584;2022-08-03T08:41:27;1.70;;;1.60;;
43142;SDS011;28750;59.842;17.584;2022-08-03T08:46:24;4.32;;;1.92;;
43142;SDS011;28750;59.842;17.584;2022-08-03T08:48:52;2.30;;;1.50;;
43142;SDS011;28750;59.842;17.584;2022-08-03T08:51:21;2.17;;;1.40;;
43142;SDS011;28750;59.842;17.584;2022-08-03T08:53:52;3.13;;;1.33;;
43142;SDS011;28750;59.842;17.584;2022-08-03T08:56:21;3.05;;;2.05;;
43142;SDS011;28750;59.842;17.584;2022-08-03T08:58:51;2.10;;;1.40;;
43142;SDS011;28750;59.842;17.584;2022-08-03T09:01:23;1.45;;;1.10;;
43142;SDS011;28750;59.842;17.584;2022-08-03T09:03:51;2.20;;;0.98;;
43142;SDS011;28750;59.842;17.584;2022-08-03T09:06:22;1.65;;;1.05;;
43142;SDS011;28750;59.842;17.584;2022-08-03T09:08:49;1.75;;;1.10;;
43142;SDS011;28750;59.842;17.584;2022-08-03T09:11:19;1.83;;;1.15;;
43142;SDS011;28750;59.842;17.584;2022-08-03T09:13:48;2.35;;;1.25;;
43142;SDS011;28750;59.842;17.584;2022-08-03T09:16:18;1.33;;;1.20;;
43142;SDS011;28750;59.842;17.584;2022-08-03T09:18:48;1.33;;;1.00;;
43142;SDS011;28750;59.842;17.584;2022-08-03T09:23:54;1.13;;;1.05;;
43142;SDS011;28750;59.842;17.584;2022-08-03T09:26:26;1.58;;;1.15;;
43142;SDS011;28750;59.842;17.584;2022-08-03T09:28:58;1.50;;;1.10;;
43142;SDS011;28750;59.842;17.584;2022-08-03T09:31:33;1.45;;;1.30;;
43142;SDS011;28750;59.842;17.584;2022-08-03T09:34:06;3.03;;;1.30;;
43142;SDS011;28750;59.842;17.584;2022-08-03T09:39:11;1.67;;;1.30;;
43142;SDS011;28750;59.842;17.584;2022-08-03T09:41:40;2.63;;;1.52;;
43142;SDS011;28750;59.842;17.584;2022-08-03T09:44:09;2.05;;;1.35;;
43142;SDS011;28750;59.842;17.584;2022-08-03T09:46:51;2.97;;;1.77;;
43142;SDS011;28750;59.842;17.584;2022-08-03T09:49:21;2.90;;;1.40;;
43142;SDS011;28750;59.842;17.584;2022-08-03T09:51:48;2.53;;;1.20;;
43142;SDS011;28750;59.842;17.584;2022-08-03T09:54:28;1.45;;;1.35;;
43142;SDS011;28750;59.842;17.584;2022-08-03T09:56:56;2.05;;;1.20;;
43142;SDS011;28750;59.842;17.584;2022-08-03T09:59:27;1.48;;;0.90;;
43142;SDS011;28750;59.842;17.584;2022-08-03T10:01:56;1.52;;;1.08;;
43142;SDS011;28750;59.842;17.584;2022-08-03T10:04:24;1.65;;;0.90;;
43142;SDS011;28750;59.842;17.584;2022-08-03T10:07:02;1.75;;;1.20;;
43142;SDS011;28750;59.842;17.584;2022-08-03T10:09:35;1.20;;;1.00;;
43142;SDS011;28750;59.842;17.584;2022-08-03T10:12:12;1.10;;;0.90;;
43142;SDS011;28750;59.842;17.584;2022-08-03T10:14:40;1.85;;;0.93;;
43142;SDS011;28750;59.842;17.584;2022-08-03T10:17:09;1.02;;;0.80;;
43142;SDS011;28750;59.842;17.584;2022-08-03T10:19:36;2.53;;;1.00;;
43142;SDS011;28750;59.842;17.584;2022-08-03T10:22:15;0.90;;;0.90;;
43142;SDS011;28750;59.842;17.584;2022-08-03T10:27:33;1.65;;;0.90;;
43142;SDS011;28750;59.842;17.584;2022-08-03T10:30:06;1.55;;;0.93;;
43142;SDS011;28750;59.842;17.584;2022-08-03T10:35:18;1.48;;;1.00;;
43142;SDS011;28750;59.842;17.584;2022-08-03T10:37:57;0.80;;;0.80;;
43142;SDS011;28750;59.842;17.584;2022-08-03T10:40:26;1.23;;;1.00;;
43142;SDS011;28750;59.842;17.584;2022-08-03T10:42:57;2.97;;;1.30;;
43142;SDS011;28750;59.842;17.584;2022-08-03T10:45:28;6.10;;;1.30;;
43142;SDS011;28750;59.842;17.584;2022-08-03T10:47:59;2.05;;;1.05;;
43142;SDS011;28750;59.842;17.584;2022-08-03T10:50:30;0.90;;;0.90;;
43142;SDS011;28750;59.842;17.584;2022-08-03T10:52:58;3.13;;;1.23;;
43142;SDS011;28750;59.842;17.584;2022-08-03T10:55:44;3.55;;;1.10;;
43142;SDS011;28750;59.842;17.584;2022-08-03T11:01:16;1.42;;;1.02;;
43142;SDS011;28750;59.842;17.584;2022-08-03T11:06:23;2.28;;;1.00;;
43142;SDS011;28750;59.842;17.584;2022-08-03T11:11:37;1.10;;;1.08;;
43142;SDS011;28750;59.842;17.584;2022-08-03T11:16:42;1.13;;;1.00;;
43142;SDS011;28750;59.842;17.584;2022-08-03T11:19:44;1.00;;;0.90;;
43142;SDS011;28750;59.842;17.584;2022-08-03T11:22:12;4.30;;;1.42;;
43142;SDS011;28750;59.842;17.584;2022-08-03T11:48:40;4.47;;;1.35;;
43142;SDS011;28750;59.842;17.584;2022-08-03T11:51:22;3.10;;;1.08;;
43142;SDS011;28750;59.842;17.584;2022-08-03T11:53:53;1.48;;;1.08;;
43142;SDS011;28750;59.842;17.584;2022-08-03T11:56:21;3.40;;;1.13;;
43142;SDS011;28750;59.842;17.584;2022-08-03T11:58:49;1.50;;;0.90;;
43142;SDS011;28750;59.842;17.584;2022-08-03T12:01:19;0.80;;;0.80;;
43142;SDS011;28750;59.842;17.584;2022-08-03T12:03:48;2.60;;;1.00;;
43142;SDS011;28750;59.842;17.584;2022-08-03T12:06:16;1.70;;;1.20;;
43142;SDS011;28750;59.842;17.584;2022-08-03T12:08:44;0.90;;;0.90;;
43142;SDS011;28750;59.842;17.584;2022-08-03T12:11:12;0.95;;;0.90;;
43142;SDS011;28750;59.842;17.584;2022-08-03T12:13:44;1.30;;;0.80;;
43142;SDS011;28750;59.842;17.584;2022-08-03T12:16:21;1.25;;;0.95;;
43142;SDS011;28750;59.842;17.584;2022-08-03T12:18:59;1.35;;;0.90;;
43142;SDS011;28750;59.842;17.584;2022-08-03T12:21:28;2.10;;;0.85;;
43142;SDS011;28750;59.842;17.584;2022-08-03T12:23:56;1.00;;;1.00;;
43142;SDS011;28750;59.842;17.584;2022-08-03T12:26:25;0.80;;;0.80;;
43142;SDS011;28750;59.842;17.584;2022-08-03T12:28:52;1.15;;;0.88;;
43142;SDS011;28750;59.842;17.584;2022-08-03T12:31:19;1.52;;;1.08;;
43142;SDS011;28750;59.842;17.584;2022-08-03T12:33:57;0.95;;;0.95;;
43142;SDS011;28750;59.842;17.584;2022-08-03T12:36:24;2.00;;;1.15;;
43142;SDS011;28750;59.842;17.584;2022-08-03T12:39:09;2.22;;;1.15;;
43142;SDS011;28750;59.842;17.584;2022-08-03T12:41:38;1.83;;;0.80;;
43142;SDS011;28750;59.842;17.584;2022-08-03T12:44:07;2.30;;;1.25;;
43142;SDS011;28750;59.842;17.584;2022-08-03T12:46:35;2.70;;;1.10;;
43142;SDS011;28750;59.842;17.584;2022-08-03T12:54:08;3.63;;;1.02;;
43142;SDS011;28750;59.842;17.584;2022-08-03T12:56:56;1.00;;;0.90;;
43142;SDS011;28750;59.842;17.584;2022-08-03T12:59:24;1.08;;;1.00;;
43142;SDS011;28750;59.842;17.584;2022-08-03T13:01:52;0.90;;;0.90;;
43142;SDS011;28750;59.842;17.584;2022-08-03T13:04:32;1.80;;;1.05;;
43142;SDS011;28750;59.842;17.584;2022-08-03T13:07:04;1.70;;;0.80;;
43142;SDS011;28750;59.842;17.584;2022-08-03T13:12:32;1.63;;;1.05;;
43142;SDS011;28750;59.842;17.584;2022-08-03T13:15:13;1.92;;;1.25;;
43142;SDS011;28750;59.842;17.584;2022-08-03T13:17:41;2.45;;;1.30;;
43142;SDS011;28750;59.842;17.584;2022-08-03T13:20:08;3.63;;;1.58;;
43142;SDS011;28750;59.842;17.584;2022-08-03T13:22:35;3.15;;;1.23;;
43142;SDS011;28750;59.842;17.584;2022-08-03T13:25:02;2.38;;;1.20;;
43142;SDS011;28750;59.842;17.584;2022-08-03T13:27:29;2.78;;;1.20;;
43142;SDS011;28750;59.842;17.584;2022-08-03T13:29:57;1.00;;;0.90;;
43142;SDS011;28750;59.842;17.584;2022-08-03T13:32:24;1.52;;;1.08;;
43142;SDS011;28750;59.842;17.584;2022-08-03T13:34:51;3.85;;;1.30;;
43142;SDS011;28750;59.842;17.584;2022-08-03T13:37:18;1.75;;;1.17;;
43142;SDS011;28750;59.842;17.584;2022-08-03T13:39:45;2.67;;;1.20;;
43142;SDS011;28750;59.842;17.584;2022-08-03T13:42:12;4.45;;;1.40;;
43142;SDS011;28750;59.842;17.584;2022-08-03T13:44:40;1.48;;;1.20;;
43142;SDS011;28750;59.842;17.584;2022-08-03T13:47:07;2.55;;;1.30;;
43142;SDS011;28750;59.842;17.584;2022-08-03T13:49:34;2.00;;;1.23;;
43142;SDS011;28750;59.842;17.584;2022-08-03T13:52:01;1.92;;;1.48;;
43142;SDS011;28750;59.842;17.584;2022-08-03T13:54:28;2.30;;;1.20;;
43142;SDS011;28750;59.842;17.584;2022-08-03T13:56:57;1.27;;;1.23;;
43142;SDS011;28750;59.842;17.584;2022-08-03T13:59:24;2.17;;;1.42;;
43142;SDS011;28750;59.842;17.584;2022-08-03T14:01:52;2.50;;;1.48;;
43142;SDS011;28750;59.842;17.584;2022-08-03T14:04:20;2.58;;;1.13;;
43142;SDS011;28750;59.842;17.584;2022-08-03T14:06:47;1.45;;;1.30;;
43142;SDS011;28750;59.842;17.584;2022-08-03T14:09:14;2.13;;;1.30;;
43142;SDS011;28750;59.842;17.584;2022-08-03T14:11:42;2.15;;;1.60;;
43142;SDS011;28750;59.842;17.584;2022-08-03T14:14:10;3.47;;;1.55;;
43142;SDS011;28750;59.842;17.584;2022-08-03T14:16:37;2.53;;;1.35;;
43142;SDS011;28750;59.842;17.584;2022-08-03T14:19:04;3.45;;;1.33;;
43142;SDS011;28750;59.842;17.584;2022-08-03T14:21:32;3.45;;;1.20;;
43142;SDS011;28750;59.842;17.584;2022-08-03T14:23:59;4.60;;;1.30;;
43142;SDS011;28750;59.842;17.584;2022-08-03T14:26:27;2.95;;;1.40;;
43142;SDS011;28750;59.842;17.584;2022-08-03T14:28:54;1.80;;;1.20;;
43142;SDS011;28750;59.842;17.584;2022-08-03T14:31:21;1.23;;;1.23;;
43142;SDS011;28750;59.842;17.584;2022-08-03T14:33:48;2.22;;;1.27;;
43142;SDS011;28750;59.842;17.584;2022-08-03T14:36:15;1.75;;;1.23;;
43142;SDS011;28750;59.842;17.584;2022-08-03T14:38:42;5.32;;;1.60;;
43142;SDS011;28750;59.842;17.584;2022-08-03T14:41:10;1.85;;;1.20;;
43142;SDS011;28750;59.842;17.584;2022-08-03T14:43:37;2.08;;;1.02;;
43142;SDS011;28750;59.842;17.584;2022-08-03T14:46:04;2.05;;;1.00;;
43142;SDS011;28750;59.842;17.584;2022-08-03T14:48:31;2.72;;;1.75;;
43142;SDS011;28750;59.842;17.584;2022-08-03T14:50:58;3.28;;;1.40;;
43142;SDS011;28750;59.842;17.584;2022-08-03T14:53:25;2.78;;;1.52;;
43142;SDS011;28750;59.842;17.584;2022-08-03T14:55:52;3.05;;;1.60;;
43142;SDS011;28750;59.842;17.584;2022-08-03T14:58:23;3.60;;;1.52;;
43142;SDS011;28750;59.842;17.584;2022-08-03T15:00:51;4.35;;;1.55;;
43142;SDS011;28750;59.842;17.584;2022-08-03T15:03:19;1.30;;;1.20;;
43142;SDS011;28750;59.842;17.584;2022-08-03T15:05:49;3.42;;;1.48;;
43142;SDS011;28750;59.842;17.584;2022-08-03T15:08:17;3.00;;;1.40;;
43142;SDS011;28750;59.842;17.584;2022-08-03T15:10:44;4.75;;;1.60;;
43142;SDS011;28750;59.842;17.584;2022-08-03T15:13:12;1.40;;;1.30;;
43142;SDS011;28750;59.842;17.584;2022-08-03T15:15:39;2.42;;;1.25;;
43142;SDS011;28750;59.842;17.584;2022-08-03T15:18:06;1.38;;;1.23;;
43142;SDS011;28750;59.842;17.584;2022-08-03T15:20:34;1.50;;;1.40;;
43142;SDS011;28750;59.842;17.584;2022-08-03T15:23:00;8.60;;;1.90;;
43142;SDS011;28750;59.842;17.584;2022-08-03T15:25:27;1.50;;;1.40;;
43142;SDS011;28750;59.842;17.584;2022-08-03T15:27:54;2.83;;;1.60;;
43142;SDS011;28750;59.842;17.584;2022-08-03T15:30:21;2.70;;;1.55;;
43142;SDS011;28750;59.842;17.584;2022-08-03T15:32:48;4.78;;;1.70;;
43142;SDS011;28750;59.842;17.584;2022-08-03T15:35:15;1.92;;;1.45;;
43142;SDS011;28750;59.842;17.584;2022-08-03T15:37:42;1.90;;;1.63;;
43142;SDS011;28750;59.842;17.584;2022-08-03T15:40:11;3.83;;;1.90;;
43142;SDS011;28750;59.842;17.584;2022-08-03T15:42:38;4.80;;;1.92;;
43142;SDS011;28750;59.842;17.584;2022-08-03T15:45:05;2.55;;;1.90;;
43142;SDS011;28750;59.842;17.584;2022-08-03T15:47:32;2.00;;;1.60;;
43142;SDS011;28750;59.842;17.584;2022-08-03T15:49:59;3.13;;;1.80;;
43142;SDS011;28750;59.842;17.584;2022-08-03T15:52:26;5.45;;;1.90;;
43142;SDS011;28750;59.842;17.584;2022-08-03T15:54:53;2.67;;;1.85;;